createdAt,value
2023-05-04T00:00:13.512Z,102332.91
2023-05-04T00:02:45.459Z,102321.78
2023-05-04T00:05:14.558Z,102322.22
2023-05-04T00:07:41.240Z,102324.31
2023-05-04T00:10:08.856Z,102312.06
2023-05-04T00:12:35.663Z,102288.97
2023-05-04T00:15:02.446Z,102306.72
2023-05-04T00:17:29.038Z,102308.59
2023-05-04T00:19:55.620Z,102298.34
2023-05-04T00:22:22.319Z,102284.41
2023-05-04T00:24:51.428Z,102290.97
2023-05-04T00:27:20.288Z,102294.31
2023-05-04T00:29:46.899Z,102290.06
2023-05-04T00:32:16.716Z,102242.00
2023-05-04T00:34:43.253Z,102283.75
2023-05-04T00:37:09.750Z,102268.28
2023-05-04T00:39:36.377Z,102287.44
2023-05-04T00:42:03.258Z,102277.00
2023-05-04T00:44:34.613Z,102280.59
2023-05-04T00:47:03.258Z,102263.06
2023-05-04T00:49:32.317Z,102285.59
2023-05-04T00:52:02.101Z,102278.63
2023-05-04T00:54:29.306Z,102262.03
2023-05-04T00:56:56.449Z,102232.44
2023-05-04T00:59:25.579Z,102267.19
2023-05-04T01:01:52.583Z,102260.44
2023-05-04T01:04:21.637Z,102269.16
2023-05-04T01:07:11.610Z,102149.50
2023-05-04T01:10:33.858Z,102261.63
2023-05-04T01:13:13.033Z,102250.59
2023-05-04T01:15:40.520Z,102265.53
2023-05-04T01:18:07.351Z,102256.94
2023-05-04T01:20:34.667Z,102253.22
2023-05-04T01:23:02.367Z,102245.47
2023-05-04T01:25:36.032Z,102248.19
2023-05-04T01:28:11.502Z,102225.72
2023-05-04T01:30:48.865Z,102251.47
2023-05-04T01:33:17.299Z,102243.63
2023-05-04T01:35:44.599Z,102242.06
2023-05-04T01:38:11.233Z,102232.03
2023-05-04T01:40:40.123Z,102234.38
2023-05-04T01:43:09.127Z,102233.31
2023-05-04T01:45:38.137Z,102216.31
2023-05-04T01:48:05.287Z,102235.69
2023-05-04T01:50:34.110Z,102236.09
2023-05-04T01:53:02.820Z,102244.81
2023-05-04T01:55:31.637Z,102234.59
2023-05-04T01:57:58.363Z,102171.97
2023-05-04T02:00:25.021Z,102248.94
2023-05-04T02:02:53.993Z,102246.53
2023-05-04T02:05:23.160Z,102245.03
2023-05-04T02:07:49.713Z,102235.00
2023-05-04T02:10:18.528Z,102230.81
2023-05-04T02:12:47.449Z,102246.63
2023-05-04T02:15:14.049Z,102238.69
2023-05-04T02:17:43.008Z,102242.94
2023-05-04T02:20:10.311Z,102250.31
2023-05-04T02:22:36.907Z,102231.34
2023-05-04T02:25:03.652Z,102247.44
2023-05-04T02:27:32.566Z,102246.28
2023-05-04T02:29:59.404Z,102238.53
2023-05-04T02:32:28.726Z,102222.41
2023-05-04T02:34:55.333Z,102207.84
2023-05-04T02:37:22.347Z,102225.19
2023-05-04T02:39:48.941Z,102230.72
2023-05-04T02:42:15.654Z,102228.13
2023-05-04T02:44:42.400Z,102215.63
2023-05-04T02:47:09.606Z,102189.25
2023-05-04T02:49:36.369Z,102231.75
2023-05-04T02:52:02.958Z,102230.09
2023-05-04T02:54:32.105Z,102194.72
2023-05-04T02:56:58.675Z,102195.53
2023-05-04T02:59:25.242Z,102217.53
2023-05-04T03:01:52.250Z,102218.69
2023-05-04T03:04:18.885Z,102219.88
2023-05-04T03:06:45.486Z,102217.38
2023-05-04T03:09:15.141Z,102227.25
2023-05-04T03:11:41.941Z,102203.69
2023-05-04T03:14:08.550Z,102229.50
2023-05-04T03:16:35.212Z,102224.25
2023-05-04T03:19:02.060Z,102223.38
2023-05-04T03:21:30.952Z,102201.47
2023-05-04T03:23:59.079Z,102213.91
2023-05-04T03:26:25.728Z,102170.25
2023-05-04T03:28:52.311Z,102176.66
2023-05-04T03:31:21.624Z,102197.59
2023-05-04T03:33:48.317Z,102198.66
2023-05-04T03:36:14.923Z,102193.44
2023-05-04T03:38:42.414Z,102197.69
2023-05-04T03:41:08.971Z,102165.50
2023-05-04T03:43:37.854Z,102187.41
2023-05-04T03:46:04.604Z,102171.50
2023-05-04T03:48:31.517Z,102169.19
2023-05-04T03:51:00.393Z,102185.66
2023-05-04T03:53:27.032Z,102194.81
2023-05-04T03:55:53.690Z,102184.03
2023-05-04T03:58:20.220Z,102165.88
2023-05-04T04:00:49.282Z,102177.53
2023-05-04T04:03:18.658Z,102187.13
2023-05-04T04:05:47.942Z,102172.22
2023-05-04T04:08:14.564Z,102186.38
2023-05-04T04:10:44.428Z,102157.75
2023-05-04T04:13:13.499Z,102174.22
2023-05-04T04:15:40.939Z,102185.69
2023-05-04T04:18:13.569Z,102184.50
2023-05-04T04:20:42.366Z,102177.94
2023-05-04T04:23:09.283Z,102184.91
2023-05-04T04:25:38.165Z,102170.34
2023-05-04T04:28:04.848Z,102146.41
2023-05-04T04:30:31.836Z,102164.34
2023-05-04T04:32:58.460Z,102169.66
2023-05-04T04:35:27.508Z,102173.84
2023-05-04T04:37:54.134Z,102167.00
2023-05-04T04:40:22.553Z,102166.53
2023-05-04T04:42:49.693Z,102148.00
2023-05-04T04:45:16.747Z,102170.97
2023-05-04T04:47:43.591Z,102089.16
2023-05-04T04:50:13.203Z,102164.66
2023-05-04T04:52:44.212Z,102169.50
2023-05-04T04:55:11.328Z,102163.66
2023-05-04T04:57:37.956Z,102163.78
2023-05-04T05:00:09.694Z,102167.63
2023-05-04T05:02:36.916Z,102146.59
2023-05-04T05:05:04.042Z,102153.00
2023-05-04T05:07:35.975Z,102164.97
2023-05-04T05:10:04.819Z,102171.38
2023-05-04T05:12:33.116Z,102169.84
2023-05-04T05:15:00.827Z,102167.44
2023-05-04T05:17:28.313Z,102171.06
2023-05-04T05:19:55.560Z,102165.91
2023-05-04T05:22:36.412Z,102167.53
2023-05-04T05:25:03.324Z,102165.75
2023-05-04T05:27:29.900Z,102173.38
2023-05-04T05:29:57.366Z,102176.13
2023-05-04T05:32:24.001Z,102142.41
2023-05-04T05:34:50.606Z,102142.97
2023-05-04T05:37:17.345Z,102155.91
2023-05-04T05:39:43.876Z,102164.44
2023-05-04T05:42:11.334Z,102144.22
2023-05-04T05:44:37.939Z,102163.38
2023-05-04T05:47:05.164Z,102154.44
2023-05-04T05:49:32.082Z,102145.13
2023-05-04T05:52:01.078Z,102140.00
2023-05-04T05:54:30.421Z,102147.72
2023-05-04T05:56:57.058Z,102147.81
2023-05-04T05:59:23.779Z,102144.88
2023-05-04T06:01:50.368Z,102150.22
2023-05-04T06:04:17.039Z,102148.13
2023-05-04T06:06:45.730Z,102127.91
2023-05-04T06:09:13.038Z,102135.66
2023-05-04T06:11:42.972Z,102136.44
2023-05-04T06:14:09.791Z,102127.75
2023-05-04T06:16:38.952Z,102118.09
2023-05-04T06:19:05.815Z,102135.44
2023-05-04T06:21:32.394Z,102126.44
2023-05-04T06:23:59.001Z,102124.44
2023-05-04T06:26:26.132Z,102118.53
2023-05-04T06:28:55.203Z,102107.56
2023-05-04T06:31:26.865Z,102119.31
2023-05-04T06:33:53.675Z,102092.31
2023-05-04T06:36:20.296Z,102087.44
2023-05-04T06:38:46.859Z,102100.91
2023-05-04T06:41:14.172Z,102101.06
2023-05-04T06:43:45.232Z,102100.59
2023-05-04T06:46:12.509Z,102101.50
2023-05-04T06:48:50.431Z,102100.34
2023-05-04T06:51:20.808Z,102086.53
2023-05-04T06:53:47.816Z,102101.66
2023-05-04T06:56:17.357Z,102102.75
2023-05-04T06:58:46.080Z,102100.88
2023-05-04T07:01:13.225Z,102097.66
2023-05-04T07:03:39.840Z,102092.13
2023-05-04T07:06:07.306Z,102090.03
2023-05-04T07:08:36.489Z,102062.53
2023-05-04T07:11:04.235Z,102061.19
2023-05-04T07:13:35.713Z,102074.47
2023-05-04T07:17:17.839Z,102054.13
2023-05-04T07:19:44.704Z,102068.66
2023-05-04T07:22:11.677Z,102058.22
2023-05-04T07:24:40.586Z,102051.09
2023-05-04T07:27:07.314Z,102039.38
2023-05-04T07:29:34.127Z,102050.09
2023-05-04T07:32:00.921Z,102043.88
2023-05-04T07:34:38.188Z,102046.38
2023-05-04T07:37:16.765Z,102057.47
2023-05-04T07:39:43.848Z,102054.31
2023-05-04T07:42:12.125Z,102059.28
2023-05-04T07:44:39.201Z,102053.63
2023-05-04T07:47:06.776Z,102031.91
2023-05-04T07:49:34.452Z,102014.31
2023-05-04T07:52:04.382Z,102041.31
2023-05-04T07:54:31.348Z,102046.63
2023-05-04T07:56:58.022Z,102049.41
2023-05-04T07:59:24.779Z,102047.88
2023-05-04T08:01:51.808Z,102047.88
2023-05-04T08:04:18.665Z,102034.59
2023-05-04T08:06:47.126Z,101911.09
2023-05-04T08:09:14.063Z,102043.19
2023-05-04T08:11:43.777Z,102022.69
2023-05-04T08:14:10.856Z,102018.31
2023-05-04T08:16:40.253Z,102015.38
2023-05-04T08:19:07.223Z,102013.34
2023-05-04T08:21:34.159Z,102014.28
2023-05-04T08:24:01.499Z,102014.22
2023-05-04T08:26:28.451Z,102010.13
2023-05-04T08:29:06.189Z,101930.63
2023-05-04T08:31:34.218Z,102002.16
2023-05-04T08:34:01.984Z,102008.38
2023-05-04T08:36:29.852Z,101987.63
2023-05-04T08:38:57.141Z,101992.97
2023-05-04T08:41:26.319Z,101991.75
2023-05-04T08:43:53.649Z,101998.34
2023-05-04T08:46:20.507Z,101997.81
2023-05-04T08:48:49.576Z,101949.56
2023-05-04T08:51:16.377Z,101978.63
2023-05-04T08:53:46.689Z,101970.06
2023-05-04T08:56:14.961Z,101977.34
2023-05-04T08:58:50.231Z,101957.91
2023-05-04T09:01:20.034Z,101949.81
2023-05-04T09:03:47.754Z,101956.59
2023-05-04T09:06:15.275Z,101943.34
2023-05-04T09:08:42.897Z,101948.78
2023-05-04T09:11:09.974Z,101946.50
2023-05-04T09:13:37.168Z,101947.50
2023-05-04T09:16:04.358Z,101948.00
2023-05-04T09:18:41.387Z,101950.38
2023-05-04T09:21:08.357Z,101947.22
2023-05-04T09:23:55.335Z,101955.13
2023-05-04T09:26:31.512Z,101944.94
2023-05-04T09:29:10.160Z,101936.38
2023-05-04T09:31:50.162Z,101940.78
2023-05-04T09:34:18.548Z,101942.91
2023-05-04T09:36:45.694Z,101945.72
2023-05-04T09:39:13.419Z,101934.59
2023-05-04T09:41:42.308Z,101928.19
2023-05-04T09:44:20.016Z,101928.47
2023-05-04T09:46:58.216Z,101932.56
2023-05-04T09:49:39.059Z,101929.00
2023-05-04T09:52:07.142Z,101927.09
2023-05-04T09:54:39.841Z,101922.22
2023-05-04T09:57:20.322Z,101929.06
2023-05-04T09:59:47.428Z,101896.13
2023-05-04T10:02:22.414Z,101927.97
2023-05-04T10:04:57.715Z,101904.03
2023-05-04T10:07:25.054Z,101897.06
2023-05-04T10:10:00.063Z,101900.09
2023-05-04T10:12:26.936Z,101897.44
2023-05-04T10:14:53.946Z,101887.94
2023-05-04T10:17:45.411Z,101896.66
2023-05-04T10:20:37.542Z,101884.53
2023-05-04T10:23:35.403Z,101878.56
2023-05-04T10:26:07.991Z,101870.16
2023-05-04T10:28:40.459Z,101866.72
2023-05-04T10:31:07.548Z,101842.97
2023-05-04T10:33:42.062Z,101857.78
2023-05-04T10:36:10.471Z,101855.13
2023-05-04T10:38:39.709Z,101855.44
2023-05-04T10:41:23.069Z,101842.38
2023-05-04T10:43:53.228Z,101839.69
2023-05-04T10:46:23.983Z,101829.47
2023-05-04T10:48:51.041Z,101829.69
2023-05-04T10:51:22.956Z,101814.50
2023-05-04T10:53:50.417Z,101775.69
2023-05-04T10:56:35.785Z,101801.84
2023-05-04T10:59:10.314Z,101792.03
2023-05-04T11:01:47.468Z,101773.38
2023-05-04T11:04:25.979Z,101777.22
2023-05-04T11:07:08.808Z,101786.22
2023-05-04T11:09:41.006Z,101780.44
2023-05-04T11:12:10.685Z,101777.44
2023-05-04T11:14:42.783Z,101764.56
2023-05-04T11:17:26.843Z,101766.09
2023-05-04T11:19:54.753Z,101753.41
2023-05-04T11:22:24.329Z,101759.41
2023-05-04T11:24:51.363Z,101752.53
2023-05-04T11:27:26.315Z,101751.06
2023-05-04T11:30:04.626Z,101747.88
2023-05-04T11:32:43.232Z,101748.91
2023-05-04T11:35:18.870Z,101737.09
2023-05-04T11:37:47.588Z,101737.22
2023-05-04T11:40:19.460Z,101732.13
2023-05-04T11:42:47.103Z,101742.94
2023-05-04T11:45:17.641Z,101738.69
2023-05-04T11:47:45.769Z,101736.13
2023-05-04T11:50:14.646Z,101733.59
2023-05-04T11:52:44.282Z,101734.75
2023-05-04T11:55:13.540Z,101728.41
2023-05-04T11:57:43.162Z,101717.09
2023-05-04T12:00:12.954Z,101712.06
2023-05-04T12:02:40.198Z,101693.03
2023-05-04T12:05:15.648Z,101706.00
2023-05-04T12:07:42.866Z,101703.69
2023-05-04T12:10:10.495Z,101699.22
2023-05-04T12:12:39.804Z,101669.25
2023-05-04T12:15:08.139Z,101685.56
2023-05-04T12:17:44.698Z,101674.03
2023-05-04T12:20:25.585Z,101689.34
2023-05-04T12:22:57.272Z,101689.88
2023-05-04T12:25:29.743Z,101682.56
2023-05-04T12:30:44.651Z,101677.34
2023-05-04T12:33:11.593Z,101658.56
2023-05-04T12:35:38.429Z,101675.00
2023-05-04T12:38:05.446Z,101671.00
2023-05-04T12:40:37.082Z,101625.84
2023-05-04T12:43:06.370Z,101667.84
2023-05-04T12:45:44.239Z,101667.72
2023-05-04T12:48:12.195Z,101659.78
2023-05-04T12:50:38.950Z,101671.81
2023-05-04T12:53:07.653Z,101643.19
2023-05-04T12:55:34.406Z,101651.53
2023-05-04T12:58:01.498Z,101660.63
2023-05-04T13:00:28.921Z,101655.16
2023-05-04T13:02:55.891Z,101658.06
2023-05-04T13:05:23.399Z,101640.88
2023-05-04T13:07:50.276Z,101638.31
2023-05-04T13:10:17.096Z,101631.75
2023-05-04T13:12:46.108Z,101624.44
2023-05-04T13:15:15.393Z,101607.66
2023-05-04T13:17:45.391Z,101612.53
2023-05-04T13:20:13.534Z,101614.50
2023-05-04T13:22:40.765Z,101612.47
2023-05-04T13:25:08.608Z,101599.91
2023-05-04T13:27:35.609Z,101585.94
2023-05-04T13:30:04.020Z,101594.88
2023-05-04T13:32:31.291Z,101585.84
2023-05-04T13:34:58.127Z,101587.56
2023-05-04T13:37:24.796Z,101587.56
2023-05-04T13:39:51.345Z,101598.22
2023-05-04T13:42:20.552Z,101592.81
2023-05-04T13:44:48.297Z,101575.69
2023-05-04T13:47:18.788Z,101567.75
2023-05-04T13:49:45.653Z,101565.75
2023-05-04T13:52:12.644Z,101563.50
2023-05-04T13:54:40.775Z,101552.97
2023-05-04T13:57:07.740Z,101545.56
2023-05-04T13:59:34.507Z,101543.56
2023-05-04T14:02:01.395Z,101532.16
2023-05-04T14:04:30.368Z,101521.22
2023-05-04T14:06:57.745Z,101538.59
2023-05-04T14:09:30.202Z,101513.34
2023-05-04T14:11:56.884Z,101518.00
2023-05-04T14:14:23.605Z,101518.97
2023-05-04T14:16:50.336Z,101515.25
2023-05-04T14:19:17.125Z,101518.59
2023-05-04T14:21:43.658Z,101520.00
2023-05-04T14:24:10.230Z,101499.16
2023-05-04T14:26:37.035Z,101510.94
2023-05-04T14:29:06.064Z,101501.66
2023-05-04T14:31:32.756Z,101507.25
2023-05-04T14:33:59.406Z,101516.28
2023-05-04T14:36:26.274Z,101506.28
2023-05-04T14:38:53.104Z,101504.69
2023-05-04T14:41:20.076Z,101519.47
2023-05-04T14:43:50.307Z,101506.59
2023-05-04T14:46:17.240Z,101501.88
2023-05-04T14:48:43.798Z,101505.84
2023-05-04T14:51:12.751Z,101507.63
2023-05-04T14:53:40.940Z,101493.69
2023-05-04T14:56:09.793Z,101500.09
2023-05-04T14:58:36.438Z,101509.69
2023-05-04T15:01:06.579Z,101494.22
2023-05-04T15:03:33.902Z,101491.97
2023-05-04T15:06:03.949Z,101490.13
2023-05-04T15:08:30.908Z,101472.63
2023-05-04T15:10:58.858Z,101478.56
2023-05-04T15:13:26.463Z,101449.38
2023-05-04T15:15:53.182Z,101461.47
2023-05-04T15:18:24.122Z,101473.22
2023-05-04T15:20:50.917Z,101469.34
2023-05-04T15:23:21.295Z,101473.63
2023-05-04T15:25:50.096Z,101457.34
2023-05-04T15:28:18.106Z,101445.78
2023-05-04T15:30:46.958Z,101463.13
2023-05-04T15:33:13.610Z,101439.06
2023-05-04T15:35:40.321Z,101442.59
2023-05-04T15:38:07.104Z,101453.56
2023-05-04T15:40:33.780Z,101443.63
2023-05-04T15:43:00.373Z,101450.19
2023-05-04T15:45:29.277Z,101440.22
2023-05-04T15:47:58.434Z,101434.75
2023-05-04T15:50:25.481Z,101434.34
2023-05-04T15:52:53.103Z,101426.44
2023-05-04T15:55:26.070Z,101435.31
2023-05-04T15:57:54.186Z,101430.22
2023-05-04T16:00:25.613Z,101421.44
2023-05-04T16:02:55.287Z,101433.38
2023-05-04T16:05:22.169Z,101425.34
2023-05-04T16:07:51.400Z,101430.13
2023-05-04T16:10:18.317Z,101417.34
2023-05-04T16:12:45.121Z,101409.78
2023-05-04T16:15:14.560Z,101426.78
2023-05-04T16:17:41.555Z,101422.50
2023-05-04T16:20:09.039Z,101415.91
2023-05-04T16:22:35.930Z,101406.16
2023-05-04T16:25:02.824Z,101416.72
2023-05-04T16:27:29.536Z,101406.53
2023-05-04T16:29:56.299Z,101403.88
2023-05-04T16:32:23.446Z,101406.03
2023-05-04T16:34:50.116Z,101403.47
2023-05-04T16:37:18.509Z,101393.19
2023-05-04T16:39:47.225Z,101394.25
2023-05-04T16:42:13.861Z,101395.66
2023-05-04T16:44:41.324Z,101402.94
2023-05-04T16:47:08.299Z,101396.69
2023-05-04T16:49:35.221Z,101393.16
2023-05-04T16:52:03.615Z,101404.84
2023-05-04T16:54:31.951Z,101394.72
2023-05-04T16:56:59.545Z,101392.78
2023-05-04T16:59:26.976Z,101390.44
2023-05-04T17:01:53.746Z,101391.56
2023-05-04T17:04:20.517Z,101368.84
2023-05-04T17:06:48.595Z,101400.09
2023-05-04T17:09:15.240Z,101405.78
2023-05-04T17:11:42.025Z,101399.81
2023-05-04T17:14:08.675Z,101391.00
2023-05-04T17:16:35.510Z,101403.00
2023-05-04T17:19:02.162Z,101389.22
2023-05-04T17:21:28.742Z,101402.50
2023-05-04T17:23:55.789Z,101390.63
2023-05-04T17:26:22.637Z,101402.97
2023-05-04T17:28:49.409Z,101393.88
2023-05-04T17:31:15.995Z,101381.16
2023-05-04T17:33:42.775Z,101398.59
2023-05-04T17:36:12.435Z,101390.84
2023-05-04T17:38:40.241Z,101395.22
2023-05-04T17:41:09.774Z,101398.06
2023-05-04T17:43:37.017Z,101383.13
2023-05-04T17:46:04.449Z,101377.69
2023-05-04T17:48:31.438Z,101383.81
2023-05-04T17:50:58.972Z,101396.28
2023-05-04T17:53:29.444Z,101370.56
2023-05-04T17:55:56.414Z,101393.66
2023-05-04T17:58:23.157Z,101400.13
2023-05-04T18:00:52.098Z,101400.00
2023-05-04T18:03:20.069Z,101389.41
2023-05-04T18:05:46.896Z,101401.44
2023-05-04T18:08:14.207Z,101395.09
2023-05-04T18:10:41.249Z,101398.13
2023-05-04T18:13:10.305Z,101401.16
2023-05-04T18:15:37.228Z,101403.78
2023-05-04T18:18:04.164Z,101405.97
2023-05-04T18:20:30.932Z,101402.78
2023-05-04T18:22:58.372Z,101408.59
2023-05-04T18:25:25.429Z,101404.38
2023-05-04T18:27:55.264Z,101407.81
2023-05-04T18:30:22.302Z,101404.84
2023-05-04T18:32:49.111Z,101417.28
2023-05-04T18:35:17.286Z,101406.38
2023-05-04T18:37:44.096Z,101415.16
2023-05-04T18:40:11.509Z,101404.03
2023-05-04T18:42:38.156Z,101422.66
2023-05-04T18:45:05.362Z,101414.72
2023-05-04T18:47:32.752Z,101415.34
2023-05-04T18:50:00.671Z,101417.50
2023-05-04T18:52:56.872Z,101416.19
2023-05-04T18:55:23.682Z,101423.69
2023-05-04T18:57:50.862Z,101417.66
2023-05-04T19:00:17.683Z,101430.47
2023-05-04T19:02:44.432Z,101431.31
2023-05-04T19:05:13.716Z,101417.59
2023-05-04T19:07:41.173Z,101415.66
2023-05-04T19:10:09.070Z,101415.59
2023-05-04T19:12:36.391Z,101419.66
2023-05-04T19:15:03.189Z,101409.34
2023-05-04T19:17:29.916Z,101417.03
2023-05-04T19:20:00.277Z,101412.94
2023-05-04T19:22:29.326Z,101410.34
2023-05-04T19:24:58.420Z,101403.03
2023-05-04T19:27:25.060Z,101408.34
2023-05-04T19:29:51.630Z,101423.47
2023-05-04T19:32:24.751Z,101429.84
2023-05-04T19:34:52.424Z,101423.38
2023-05-04T19:37:19.496Z,101424.41
2023-05-04T19:39:46.355Z,101419.22
2023-05-04T19:42:12.924Z,101394.50
2023-05-04T19:44:39.576Z,101428.31
2023-05-04T19:47:10.696Z,101422.53
2023-05-04T19:49:37.355Z,101418.66
2023-05-04T19:52:07.097Z,101424.97
2023-05-04T19:54:34.029Z,101395.16
2023-05-04T19:57:03.378Z,101419.72
2023-05-04T19:59:30.029Z,101423.78
2023-05-04T20:01:56.722Z,101424.13
2023-05-04T20:04:27.880Z,101412.94
2023-05-04T20:06:57.143Z,101425.75
2023-05-04T20:09:26.210Z,101415.47
2023-05-04T20:11:52.750Z,101408.75
2023-05-04T20:14:19.381Z,101423.00
2023-05-04T20:16:46.661Z,101417.84
2023-05-04T20:19:15.871Z,101420.97
2023-05-04T20:21:42.476Z,101411.06
2023-05-04T20:24:12.468Z,101415.19
2023-05-04T20:26:39.097Z,101411.66
2023-05-04T20:29:05.870Z,101415.91
2023-05-04T20:31:36.055Z,101406.94
2023-05-04T20:34:05.465Z,101402.63
2023-05-04T20:36:36.158Z,101402.00
2023-05-04T20:39:07.765Z,101395.00
2023-05-04T20:41:34.913Z,101397.09
2023-05-04T20:44:02.254Z,101404.25
2023-05-04T20:46:29.322Z,101389.97
2023-05-04T20:48:57.059Z,101363.81
2023-05-04T20:51:24.042Z,101394.97
2023-05-04T20:53:51.229Z,101392.78
2023-05-04T20:56:18.202Z,101370.03
2023-05-04T20:58:47.914Z,101384.59
2023-05-04T21:01:15.409Z,101388.97
2023-05-04T21:03:42.481Z,101383.56
2023-05-04T21:06:09.869Z,101390.34
2023-05-04T21:08:39.451Z,101386.44
2023-05-04T21:11:06.700Z,101389.78
2023-05-04T21:13:33.685Z,101367.66
2023-05-04T21:16:00.552Z,101378.97
2023-05-04T21:18:30.262Z,101392.97
2023-05-04T21:20:57.214Z,101367.56
2023-05-04T21:23:25.211Z,101392.53
2023-05-04T21:26:03.849Z,101341.25
2023-05-04T21:28:32.976Z,101277.84
2023-05-04T21:30:59.898Z,101387.75
2023-05-04T21:33:30.411Z,101386.06
2023-05-04T21:36:00.597Z,101378.81
2023-05-04T21:38:28.380Z,101370.88
2023-05-04T21:40:55.147Z,101373.66
2023-05-04T21:43:21.936Z,101375.94
2023-05-04T21:45:48.730Z,101370.53
2023-05-04T21:48:15.650Z,101364.34
2023-05-04T21:50:42.709Z,101357.28
2023-05-04T21:53:09.646Z,101336.41
2023-05-04T21:55:36.713Z,101367.94
2023-05-04T21:58:03.652Z,101342.41
2023-05-04T22:00:30.978Z,101352.31
2023-05-04T22:02:58.240Z,101361.94
2023-05-04T22:05:25.106Z,101357.84
2023-05-04T22:07:52.146Z,101353.94
2023-05-04T22:10:22.081Z,101358.91
2023-05-04T22:12:49.323Z,101345.94
2023-05-04T22:15:16.704Z,101332.50
2023-05-04T22:17:46.154Z,101346.59
2023-05-04T22:20:13.710Z,101360.69
2023-05-04T22:22:40.962Z,101248.03
2023-05-04T22:25:08.248Z,101348.50
2023-05-04T22:27:35.376Z,101360.22
2023-05-04T22:30:02.724Z,101342.47
2023-05-04T22:32:30.230Z,101346.78
2023-05-04T22:34:59.935Z,101299.13
2023-05-04T22:37:27.316Z,101354.69
2023-05-04T22:39:54.404Z,101354.78
2023-05-04T22:42:26.168Z,101341.72
2023-05-04T22:44:55.767Z,101354.19
2023-05-04T22:47:26.025Z,101236.94
2023-05-04T22:49:58.920Z,101366.47
2023-05-04T22:52:28.094Z,101373.22
2023-05-04T22:54:55.169Z,101366.72
2023-05-04T22:57:23.076Z,101383.78
2023-05-04T22:59:53.112Z,101367.84
2023-05-04T23:02:20.061Z,101379.53
2023-05-04T23:04:47.030Z,101386.13
2023-05-04T23:07:14.741Z,101374.25
2023-05-04T23:09:43.502Z,101379.97
2023-05-04T23:12:10.433Z,101396.31
2023-05-04T23:14:37.666Z,101392.59
2023-05-04T23:17:07.290Z,101385.34
2023-05-04T23:19:38.075Z,101267.69
2023-05-04T23:22:05.020Z,101409.44
2023-05-04T23:24:32.189Z,101394.88
2023-05-04T23:26:59.454Z,101408.06
2023-05-04T23:29:26.794Z,101386.91
2023-05-04T23:31:54.064Z,101394.25
2023-05-04T23:34:21.353Z,101398.56
2023-05-04T23:36:49.673Z,101410.31
2023-05-04T23:39:17.116Z,101415.41
2023-05-04T23:41:44.588Z,101416.78
2023-05-04T23:44:11.844Z,101392.72
2023-05-04T23:46:39.180Z,101410.78
2023-05-04T23:49:08.908Z,101422.59
2023-05-04T23:51:36.303Z,101428.13
2023-05-04T23:54:03.393Z,101438.97
2023-05-04T23:56:31.794Z,101436.22
2023-05-04T23:58:59.094Z,101419.72
